createdAt,value
2023-05-22T00:01:47.102Z,46.90
2023-05-22T00:04:21.577Z,47.75
2023-05-22T00:06:49.873Z,47.58
2023-05-22T00:09:17.435Z,48.83
2023-05-22T00:11:44.972Z,47.33
2023-05-22T00:14:13.899Z,49.28
2023-05-22T00:16:41.721Z,48.35
2023-05-22T00:19:13.795Z,47.35
2023-05-22T00:21:41.476Z,49.25
2023-05-22T00:24:09.646Z,48.72
2023-05-22T00:26:37.203Z,47.63
2023-05-22T00:29:06.220Z,48.13
2023-05-22T00:31:34.093Z,45.78
2023-05-22T00:34:01.743Z,49.53
2023-05-22T00:36:29.974Z,48.92
2023-05-22T00:38:57.494Z,48.97
2023-05-22T00:41:25.284Z,47.72
2023-05-22T00:43:52.890Z,46.45
2023-05-22T00:46:24.765Z,49.90
2023-05-22T00:48:55.563Z,49.15
2023-05-22T00:51:24.613Z,48.00
2023-05-22T00:53:53.744Z,47.92
2023-05-22T00:56:22.406Z,47.35
2023-05-22T00:58:50.114Z,49.83
2023-05-22T01:01:18.150Z,49.30
2023-05-22T01:03:47.228Z,49.42
2023-05-22T01:06:16.340Z,47.58
2023-05-22T01:08:44.795Z,46.97
2023-05-22T01:11:25.918Z,46.78
2023-05-22T01:14:00.716Z,48.28
2023-05-22T01:16:46.989Z,48.67
2023-05-22T01:19:51.244Z,49.58
2023-05-22T01:22:21.850Z,49.67
2023-05-22T01:25:10.431Z,50.10
2023-05-22T01:28:04.006Z,51.05
2023-05-22T01:30:46.217Z,52.30
2023-05-22T01:33:18.784Z,51.88
2023-05-22T01:35:52.155Z,54.00
2023-05-22T01:38:20.770Z,52.08
2023-05-22T01:40:48.686Z,52.10
2023-05-22T01:43:16.910Z,51.75
2023-05-22T01:45:46.385Z,52.33
2023-05-22T01:48:14.020Z,53.88
2023-05-22T01:50:42.095Z,53.58
2023-05-22T01:53:56.478Z,52.63
2023-05-22T01:56:32.736Z,52.53
2023-05-22T01:59:10.159Z,51.83
2023-05-22T02:01:39.612Z,51.53
2023-05-22T02:04:09.719Z,52.60
2023-05-22T02:06:39.175Z,50.75
2023-05-22T02:09:08.821Z,52.65
2023-05-22T02:11:40.737Z,49.95
2023-05-22T02:14:09.519Z,50.40
2023-05-22T02:16:38.439Z,50.83
2023-05-22T02:19:06.858Z,51.47
2023-05-22T02:21:55.428Z,51.15
2023-05-22T02:24:23.973Z,51.70
2023-05-22T02:26:52.458Z,51.05
2023-05-22T02:29:19.886Z,50.60
2023-05-22T02:31:47.417Z,51.35
2023-05-22T02:34:15.030Z,52.13
2023-05-22T02:36:42.608Z,51.47
2023-05-22T02:39:10.246Z,51.60
2023-05-22T02:41:37.771Z,52.75
2023-05-22T02:44:05.592Z,52.83
2023-05-22T02:46:33.372Z,53.00
2023-05-22T02:49:01.045Z,53.67
2023-05-22T02:51:28.744Z,53.15
2023-05-22T02:53:56.216Z,50.65
2023-05-22T02:56:24.376Z,51.60
2023-05-22T02:58:52.008Z,51.30
2023-05-22T03:01:19.526Z,52.50
2023-05-22T03:03:49.262Z,51.20
2023-05-22T03:06:16.969Z,50.67
2023-05-22T03:08:44.746Z,52.20
2023-05-22T03:11:12.326Z,49.80
2023-05-22T03:13:39.773Z,50.08
2023-05-22T03:16:08.501Z,50.53
2023-05-22T03:18:40.789Z,49.03
2023-05-22T03:21:08.440Z,49.50
2023-05-22T03:23:35.947Z,48.67
2023-05-22T03:26:03.583Z,49.47
2023-05-22T03:28:34.868Z,49.53
2023-05-22T03:31:02.511Z,48.92
2023-05-22T03:33:38.159Z,48.72
2023-05-22T03:36:06.220Z,49.22
2023-05-22T03:38:34.224Z,49.53
2023-05-22T03:41:01.742Z,50.72
2023-05-22T03:43:30.205Z,48.67
2023-05-22T03:45:59.594Z,49.67
2023-05-22T03:48:28.336Z,49.88
2023-05-22T03:50:56.045Z,49.70
2023-05-22T03:53:23.514Z,48.65
2023-05-22T03:55:51.046Z,49.10
2023-05-22T03:58:19.454Z,47.78
2023-05-22T04:00:47.060Z,50.00
2023-05-22T04:03:14.675Z,47.17
2023-05-22T04:05:42.359Z,48.58
2023-05-22T04:08:11.211Z,46.15
2023-05-22T04:10:39.250Z,48.33
2023-05-22T04:13:07.065Z,47.75
2023-05-22T04:15:34.530Z,47.78
2023-05-22T04:18:02.223Z,46.28
2023-05-22T04:20:29.895Z,46.70
2023-05-22T04:22:57.900Z,45.08
2023-05-22T04:25:25.585Z,45.53
2023-05-22T04:27:53.526Z,45.95
2023-05-22T04:30:22.378Z,46.05
2023-05-22T04:32:50.261Z,45.92
2023-05-22T04:35:18.888Z,45.80
2023-05-22T04:37:46.608Z,44.72
2023-05-22T04:40:15.618Z,43.92
2023-05-22T04:42:43.545Z,44.25
2023-05-22T04:45:11.524Z,45.15
2023-05-22T04:47:41.904Z,44.03
2023-05-22T04:50:10.055Z,44.97
2023-05-22T04:52:37.699Z,44.75
2023-05-22T04:55:07.133Z,44.22
2023-05-22T04:57:34.635Z,43.17
2023-05-22T05:00:02.225Z,42.22
2023-05-22T05:02:32.734Z,40.28
2023-05-22T05:05:00.357Z,40.95
2023-05-22T05:07:28.358Z,41.38
2023-05-22T05:09:55.940Z,40.80
2023-05-22T05:12:23.493Z,41.05
2023-05-22T05:14:51.497Z,39.97
2023-05-22T05:17:19.122Z,40.40
2023-05-22T05:19:46.601Z,40.47
2023-05-22T05:22:14.135Z,39.67
2023-05-22T05:24:41.754Z,38.15
2023-05-22T05:27:10.034Z,39.17
2023-05-22T05:29:37.862Z,39.17
2023-05-22T05:32:22.728Z,37.17
2023-05-22T05:35:28.690Z,37.92
2023-05-22T05:38:04.676Z,34.17
2023-05-22T05:40:33.800Z,35.85
2023-05-22T05:43:01.325Z,22.73
2023-05-22T05:45:29.936Z,23.42
2023-05-22T05:47:57.974Z,22.75
2023-05-22T05:50:25.513Z,21.52
2023-05-22T05:52:54.312Z,20.77
2023-05-22T05:55:22.924Z,21.73
2023-05-22T05:57:52.365Z,20.15
2023-05-22T06:00:27.905Z,20.50
2023-05-22T06:02:56.387Z,19.75
2023-05-22T06:05:46.208Z,19.40
2023-05-22T06:08:22.514Z,18.27
2023-05-22T06:10:50.575Z,18.05
2023-05-22T06:13:33.440Z,18.00
2023-05-22T06:16:06.572Z,17.77
2023-05-22T06:18:35.169Z,17.45
2023-05-22T06:21:02.828Z,16.30
2023-05-22T06:23:30.387Z,16.40
2023-05-22T06:25:57.893Z,16.08
2023-05-22T06:28:27.259Z,15.52
2023-05-22T06:30:57.428Z,15.07
2023-05-22T06:33:26.985Z,15.57
2023-05-22T06:35:54.517Z,15.77
2023-05-22T06:38:22.257Z,14.95
2023-05-22T06:40:50.229Z,14.48
2023-05-22T06:43:24.113Z,15.18
2023-05-22T06:48:23.664Z,14.88
2023-05-22T06:51:01.211Z,16.10
2023-05-22T06:53:29.243Z,15.60
2023-05-22T06:55:57.359Z,15.68
2023-05-22T06:58:36.370Z,14.80
2023-05-22T07:01:06.231Z,15.43
2023-05-22T07:03:39.930Z,15.88
2023-05-22T07:06:33.995Z,15.85
2023-05-22T07:09:03.244Z,15.57
2023-05-22T07:11:31.028Z,15.35
2023-05-22T07:13:58.990Z,15.80
2023-05-22T07:16:26.556Z,15.25
2023-05-22T07:18:55.324Z,14.13
2023-05-22T07:21:24.153Z,14.32
2023-05-22T07:23:53.103Z,13.95
2023-05-22T07:26:22.734Z,13.27
2023-05-22T07:29:01.427Z,14.07
2023-05-22T07:31:29.395Z,13.80
2023-05-22T07:33:56.969Z,13.82
2023-05-22T07:36:24.552Z,13.00
2023-05-22T07:38:52.262Z,14.02
2023-05-22T07:41:20.258Z,13.60
2023-05-22T07:43:47.847Z,13.55
2023-05-22T07:46:19.880Z,14.70
2023-05-22T07:49:11.209Z,15.18
2023-05-22T07:51:42.262Z,14.82
2023-05-22T07:54:11.158Z,15.60
2023-05-22T07:56:42.186Z,15.63
2023-05-22T07:59:12.881Z,15.00
2023-05-22T08:01:42.198Z,14.30
2023-05-22T08:04:09.882Z,14.35
2023-05-22T08:06:37.750Z,15.35
2023-05-22T08:09:05.398Z,15.68
2023-05-22T08:11:34.486Z,16.00
2023-05-22T08:14:02.069Z,15.20
2023-05-22T08:16:31.260Z,15.65
2023-05-22T08:18:58.912Z,15.50
2023-05-22T08:21:26.487Z,15.65
2023-05-22T08:23:53.888Z,15.50
2023-05-22T08:26:26.380Z,15.82
2023-05-22T08:28:53.979Z,15.85
2023-05-22T08:31:21.709Z,16.35
2023-05-22T08:33:49.244Z,16.17
2023-05-22T08:36:17.110Z,16.65
2023-05-22T08:38:44.717Z,15.60
2023-05-22T08:41:13.477Z,15.52
2023-05-22T08:43:42.080Z,16.85
2023-05-22T08:46:10.345Z,16.08
2023-05-22T08:48:38.722Z,17.15
2023-05-22T08:51:08.015Z,16.42
2023-05-22T08:53:36.905Z,16.27
2023-05-22T08:56:07.407Z,16.63
2023-05-22T08:58:38.779Z,16.02
2023-05-22T09:01:09.424Z,16.08
2023-05-22T09:03:37.965Z,16.08
2023-05-22T09:06:10.777Z,14.95
2023-05-22T09:08:39.363Z,15.43
2023-05-22T09:11:07.018Z,15.35
2023-05-22T09:13:34.595Z,15.57
2023-05-22T09:16:12.624Z,15.90
2023-05-22T09:18:41.759Z,15.00
2023-05-22T09:21:25.955Z,15.18
2023-05-22T09:24:01.956Z,14.10
2023-05-22T09:26:30.476Z,12.80
2023-05-22T09:29:00.428Z,12.73
2023-05-22T09:31:29.884Z,12.80
2023-05-22T09:33:57.850Z,12.30
2023-05-22T09:36:35.079Z,12.60
2023-05-22T09:39:04.606Z,12.90
2023-05-22T09:41:36.424Z,12.95
2023-05-22T09:44:14.678Z,13.18
2023-05-22T09:46:44.638Z,14.52
2023-05-22T09:49:15.743Z,14.20
2023-05-22T09:51:48.188Z,13.65
2023-05-22T09:54:17.286Z,14.30
2023-05-22T09:56:45.157Z,14.43
2023-05-22T09:59:14.828Z,14.45
2023-05-22T10:01:42.990Z,14.10
2023-05-22T10:04:14.556Z,15.13
2023-05-22T10:06:48.180Z,15.07
2023-05-22T10:09:19.481Z,15.25
2023-05-22T10:11:49.102Z,14.48
2023-05-22T10:14:17.340Z,15.13
2023-05-22T10:16:45.621Z,15.55
2023-05-22T10:19:13.873Z,16.40
2023-05-22T10:21:42.769Z,16.95
2023-05-22T10:24:10.760Z,16.02
2023-05-22T10:26:39.561Z,15.98
2023-05-22T10:29:22.739Z,16.05
2023-05-22T10:32:08.421Z,16.27
2023-05-22T10:34:47.293Z,16.98
2023-05-22T10:37:21.814Z,17.27
2023-05-22T10:40:05.114Z,16.55
2023-05-22T10:42:32.985Z,16.25
2023-05-22T10:45:04.793Z,16.45
2023-05-22T10:47:34.295Z,15.57
2023-05-22T10:50:06.003Z,16.67
2023-05-22T10:52:33.627Z,17.38
2023-05-22T10:55:02.006Z,17.00
2023-05-22T10:57:34.790Z,16.05
2023-05-22T11:00:15.694Z,17.52
2023-05-22T11:02:46.957Z,16.02
2023-05-22T11:05:21.265Z,16.83
2023-05-22T11:07:49.504Z,16.45
2023-05-22T11:10:27.266Z,16.08
2023-05-22T11:13:12.540Z,16.17
2023-05-22T11:15:46.097Z,16.52
2023-05-22T11:18:15.299Z,15.63
2023-05-22T11:20:44.369Z,15.02
2023-05-22T11:23:12.123Z,15.50
2023-05-22T11:25:41.604Z,16.58
2023-05-22T11:28:10.972Z,17.38
2023-05-22T11:30:39.144Z,17.77
2023-05-22T11:33:07.073Z,17.77
2023-05-22T11:35:35.135Z,17.85
2023-05-22T11:38:06.170Z,17.60
2023-05-22T11:40:33.735Z,17.90
2023-05-22T11:43:01.264Z,18.55
2023-05-22T11:45:28.962Z,17.77
2023-05-22T11:47:56.677Z,18.70
2023-05-22T11:50:40.159Z,19.42
2023-05-22T11:53:08.775Z,19.50
2023-05-22T11:55:36.309Z,19.15
2023-05-22T11:58:03.888Z,18.98
2023-05-22T12:00:32.221Z,19.20
2023-05-22T12:03:00.002Z,19.67
2023-05-22T12:05:27.766Z,19.98
2023-05-22T12:07:55.451Z,19.65
2023-05-22T12:10:23.236Z,20.50
2023-05-22T12:12:51.088Z,19.77
2023-05-22T12:15:21.707Z,19.52
2023-05-22T12:17:49.367Z,19.27
2023-05-22T12:20:16.979Z,16.98
2023-05-22T12:22:44.887Z,17.35
2023-05-22T12:25:20.609Z,17.58
2023-05-22T12:27:48.298Z,17.65
2023-05-22T12:30:17.118Z,18.48
2023-05-22T12:32:49.962Z,17.60
2023-05-22T12:35:18.742Z,17.77
2023-05-22T12:37:50.952Z,16.42
2023-05-22T12:40:18.944Z,15.65
2023-05-22T12:42:49.845Z,16.23
2023-05-22T12:45:18.354Z,15.93
2023-05-22T12:47:46.352Z,15.80
2023-05-22T12:50:14.092Z,17.35
2023-05-22T12:52:41.670Z,17.00
2023-05-22T12:55:11.308Z,17.65
2023-05-22T12:57:38.984Z,18.50
2023-05-22T13:00:07.205Z,18.02
2023-05-22T13:02:35.323Z,17.30
2023-05-22T13:05:02.876Z,17.88
2023-05-22T13:07:31.966Z,17.70
2023-05-22T13:09:59.528Z,18.38
2023-05-22T13:12:27.605Z,16.85
2023-05-22T13:14:55.167Z,17.77
2023-05-22T13:17:22.705Z,17.75
2023-05-22T13:19:50.245Z,17.55
2023-05-22T13:22:18.597Z,17.15
2023-05-22T13:24:46.277Z,17.92
2023-05-22T13:27:14.038Z,19.00
2023-05-22T13:29:41.595Z,18.23
2023-05-22T13:32:09.201Z,19.48
2023-05-22T13:34:36.823Z,19.02
2023-05-22T13:37:04.789Z,19.05
2023-05-22T13:39:32.356Z,17.73
2023-05-22T13:42:00.827Z,17.65
2023-05-22T13:44:28.485Z,16.90
2023-05-22T13:46:56.100Z,17.67
2023-05-22T13:49:23.673Z,18.17
2023-05-22T13:51:51.361Z,19.30
2023-05-22T13:54:18.979Z,19.52
2023-05-22T13:56:46.794Z,19.73
2023-05-22T13:59:14.412Z,20.88
2023-05-22T14:01:41.973Z,23.20
2023-05-22T14:04:09.655Z,22.60
2023-05-22T14:06:37.346Z,20.50
2023-05-22T14:09:07.544Z,15.65
2023-05-22T14:11:35.394Z,16.35
2023-05-22T14:14:03.033Z,15.50
2023-05-22T14:16:30.761Z,15.35
2023-05-22T14:19:00.861Z,15.38
2023-05-22T14:21:28.607Z,16.15
2023-05-22T14:23:56.144Z,16.83
2023-05-22T14:26:24.657Z,15.77
2023-05-22T14:28:53.302Z,15.57
2023-05-22T14:31:20.845Z,15.02
2023-05-22T14:33:48.558Z,15.20
2023-05-22T14:36:18.100Z,14.90
2023-05-22T14:38:45.656Z,14.50
2023-05-22T14:41:13.599Z,15.70
2023-05-22T14:43:41.253Z,15.55
2023-05-22T14:46:08.929Z,14.50
2023-05-22T14:48:36.605Z,15.40
2023-05-22T14:51:04.265Z,14.90
2023-05-22T14:53:31.856Z,16.20
2023-05-22T14:55:59.475Z,15.52
2023-05-22T14:58:26.946Z,15.68
2023-05-22T15:00:54.475Z,15.48
2023-05-22T15:03:23.869Z,15.93
2023-05-22T15:05:51.344Z,15.85
2023-05-22T15:08:20.301Z,16.67
2023-05-22T15:10:47.917Z,15.00
2023-05-22T15:13:15.949Z,16.10
2023-05-22T15:15:43.844Z,17.55
2023-05-22T15:18:12.517Z,18.52
2023-05-22T15:20:40.543Z,22.75
2023-05-22T15:23:08.004Z,22.17
2023-05-22T15:25:36.917Z,21.27
2023-05-22T15:28:08.183Z,23.85
2023-05-22T15:30:36.762Z,23.27
2023-05-22T15:33:04.367Z,22.38
2023-05-22T15:35:32.571Z,22.67
2023-05-22T15:38:00.177Z,23.40
2023-05-22T15:40:27.859Z,23.73
2023-05-22T15:42:55.906Z,26.17
2023-05-22T15:45:23.451Z,26.10
2023-05-22T15:47:51.351Z,29.38
2023-05-22T15:50:19.009Z,28.58
2023-05-22T15:52:46.485Z,27.73
2023-05-22T15:55:14.058Z,27.15
2023-05-22T15:57:41.621Z,29.95
2023-05-22T16:00:09.774Z,27.50
2023-05-22T16:02:37.362Z,29.95
2023-05-22T16:05:05.303Z,28.17
2023-05-22T16:07:33.109Z,29.75
2023-05-22T16:10:00.700Z,30.80
2023-05-22T16:12:28.198Z,31.35
2023-05-22T16:15:00.315Z,37.08
2023-05-22T16:17:28.532Z,40.78
2023-05-22T16:19:56.175Z,42.38
2023-05-22T16:22:30.403Z,46.95
2023-05-22T16:25:04.423Z,47.30
2023-05-22T16:27:31.951Z,45.90
2023-05-22T16:30:02.824Z,45.88
2023-05-22T16:32:31.017Z,43.25
2023-05-22T16:34:58.565Z,49.50
2023-05-22T16:37:26.138Z,54.67
2023-05-22T16:39:53.680Z,66.97
2023-05-22T16:42:21.207Z,77.60
2023-05-22T16:44:48.787Z,76.80
2023-05-22T16:47:16.399Z,70.95
2023-05-22T16:49:44.092Z,71.85
2023-05-22T16:52:11.640Z,66.88
2023-05-22T16:54:39.062Z,65.07
2023-05-22T16:57:07.835Z,64.55
2023-05-22T16:59:35.488Z,67.22
2023-05-22T17:02:03.214Z,77.22
2023-05-22T17:04:31.390Z,76.80
2023-05-22T17:06:58.918Z,88.68
2023-05-22T17:09:27.973Z,68.55
2023-05-22T17:11:55.505Z,70.15
2023-05-22T17:14:23.189Z,70.85
2023-05-22T17:16:50.911Z,69.20
2023-05-22T17:19:18.658Z,62.60
2023-05-22T17:21:46.458Z,62.75
2023-05-22T17:24:14.800Z,65.72
2023-05-22T17:26:44.163Z,62.13
2023-05-22T17:29:11.899Z,59.67
2023-05-22T17:31:39.763Z,60.00
2023-05-22T17:34:07.648Z,78.75
2023-05-22T17:36:35.200Z,73.20
2023-05-22T17:39:02.896Z,67.95
2023-05-22T17:41:31.255Z,70.22
2023-05-22T17:44:01.100Z,70.32
2023-05-22T17:46:28.760Z,64.60
2023-05-22T17:48:56.303Z,67.63
2023-05-22T17:51:23.870Z,66.05
2023-05-22T17:53:56.208Z,65.18
2023-05-22T17:56:23.918Z,64.28
2023-05-22T17:58:51.604Z,66.88
2023-05-22T18:01:19.974Z,67.85
2023-05-22T18:03:47.637Z,72.68
2023-05-22T18:06:15.319Z,70.30
2023-05-22T18:08:42.972Z,76.88
2023-05-22T18:11:10.535Z,84.50
2023-05-22T18:13:39.529Z,79.55
2023-05-22T18:16:07.347Z,88.95
2023-05-22T18:18:34.962Z,79.53
2023-05-22T18:21:03.236Z,78.45
2023-05-22T18:23:30.752Z,75.43
2023-05-22T18:25:58.275Z,71.85
2023-05-22T18:28:26.916Z,74.10
2023-05-22T18:30:55.211Z,71.90
2023-05-22T18:33:24.945Z,82.28
2023-05-22T18:35:52.982Z,76.32
2023-05-22T18:38:22.392Z,72.03
2023-05-22T18:40:50.067Z,73.00
2023-05-22T18:43:17.602Z,70.80
2023-05-22T18:45:45.240Z,77.18
2023-05-22T18:48:12.800Z,73.15
2023-05-22T18:50:40.827Z,71.72
2023-05-22T18:53:08.570Z,73.35
2023-05-22T18:55:36.199Z,75.10
2023-05-22T18:58:03.929Z,76.93
2023-05-22T19:00:31.352Z,80.57
2023-05-22T19:02:59.698Z,73.82
2023-05-22T19:05:27.323Z,78.47
2023-05-22T19:07:55.062Z,76.80
2023-05-22T19:10:22.587Z,75.32
2023-05-22T19:12:50.163Z,75.97
2023-05-22T19:15:17.885Z,77.93
2023-05-22T19:17:45.438Z,74.15
2023-05-22T19:20:13.117Z,79.43
2023-05-22T19:22:40.727Z,74.95
2023-05-22T19:25:08.741Z,75.97
2023-05-22T19:27:38.871Z,80.82
2023-05-22T19:30:07.575Z,80.15
2023-05-22T19:32:35.470Z,79.75
2023-05-22T19:35:02.987Z,78.47
2023-05-22T19:37:31.199Z,84.93
2023-05-22T19:39:58.666Z,82.75
2023-05-22T19:42:26.288Z,79.90
2023-05-22T19:44:53.920Z,80.45
2023-05-22T19:47:21.582Z,79.25
2023-05-22T19:49:49.220Z,80.97
2023-05-22T19:52:16.786Z,77.85
2023-05-22T19:54:44.292Z,80.30
2023-05-22T19:57:11.903Z,83.30
2023-05-22T19:59:39.550Z,84.03
2023-05-22T20:02:07.904Z,83.25
2023-05-22T20:04:35.640Z,58.75
2023-05-22T20:07:04.076Z,72.57
2023-05-22T20:09:31.670Z,74.93
2023-05-22T20:11:59.102Z,72.63
2023-05-22T20:14:26.834Z,77.57
2023-05-22T20:16:54.830Z,64.90
2023-05-22T20:19:24.491Z,59.33
2023-05-22T20:21:52.690Z,59.15
2023-05-22T20:24:21.225Z,55.80
2023-05-22T20:26:48.753Z,52.92
2023-05-22T20:29:16.306Z,57.35
2023-05-22T20:31:44.227Z,55.60
2023-05-22T20:34:12.109Z,57.40
2023-05-22T20:36:41.138Z,55.60
2023-05-22T20:39:09.547Z,61.95
2023-05-22T20:41:37.046Z,58.85
2023-05-22T20:44:04.726Z,63.28
2023-05-22T20:46:32.454Z,61.30
2023-05-22T20:49:00.213Z,69.18
2023-05-22T20:51:32.805Z,61.67
2023-05-22T20:54:00.778Z,62.53
2023-05-22T20:56:29.203Z,61.28
2023-05-22T20:58:57.356Z,62.83
2023-05-22T21:01:25.509Z,61.00
2023-05-22T21:03:54.790Z,53.65
2023-05-22T21:06:23.362Z,60.92
2023-05-22T21:08:53.875Z,57.83
2023-05-22T21:11:21.874Z,61.00
2023-05-22T21:13:49.615Z,58.65
2023-05-22T21:16:17.229Z,56.00
2023-05-22T21:18:45.119Z,53.65
2023-05-22T21:21:18.194Z,50.22
2023-05-22T21:23:45.829Z,47.63
2023-05-22T21:26:13.275Z,49.60
2023-05-22T21:28:41.029Z,47.15
2023-05-22T21:31:08.832Z,46.40
2023-05-22T21:33:36.600Z,46.45
2023-05-22T21:36:04.381Z,45.83
2023-05-22T21:38:32.018Z,45.88
2023-05-22T21:40:59.834Z,43.55
2023-05-22T21:43:27.312Z,46.38
2023-05-22T21:45:54.821Z,48.00
2023-05-22T21:48:22.409Z,48.17
2023-05-22T21:50:50.464Z,45.85
2023-05-22T21:53:18.037Z,44.20
2023-05-22T21:55:45.683Z,46.50
2023-05-22T21:58:14.005Z,44.17
2023-05-22T22:00:41.876Z,45.70
2023-05-22T22:03:09.720Z,42.63
2023-05-22T22:05:37.363Z,46.97
2023-05-22T22:08:05.550Z,45.88
2023-05-22T22:10:33.052Z,45.25
2023-05-22T22:13:01.752Z,45.47
2023-05-22T22:15:29.998Z,47.22
2023-05-22T22:17:59.633Z,46.30
2023-05-22T22:20:39.962Z,46.03
2023-05-22T22:23:12.289Z,48.47
2023-05-22T22:25:39.851Z,45.35
2023-05-22T22:28:07.779Z,45.83
2023-05-22T22:30:35.669Z,46.25
2023-05-22T22:33:03.365Z,46.28
2023-05-22T22:35:31.156Z,47.38
2023-05-22T22:37:59.142Z,48.88
2023-05-22T22:40:27.044Z,48.42
2023-05-22T22:42:54.851Z,48.15
2023-05-22T22:45:22.451Z,49.10
2023-05-22T22:47:50.180Z,48.17
2023-05-22T22:50:17.849Z,47.60
2023-05-22T22:52:48.136Z,47.53
2023-05-22T22:55:16.083Z,47.75
2023-05-22T22:57:45.019Z,44.50
2023-05-22T23:00:13.711Z,46.63
2023-05-22T23:02:41.597Z,45.22
2023-05-22T23:05:09.744Z,46.78
2023-05-22T23:07:37.344Z,44.97
2023-05-22T23:10:05.390Z,43.30
2023-05-22T23:12:35.466Z,44.53
2023-05-22T23:15:03.730Z,45.97
2023-05-22T23:17:31.671Z,43.63
2023-05-22T23:19:59.256Z,44.58
2023-05-22T23:22:26.827Z,43.33
2023-05-22T23:24:54.307Z,43.28
2023-05-22T23:27:22.261Z,42.40
2023-05-22T23:29:49.752Z,43.33
2023-05-22T23:32:17.286Z,42.22
2023-05-22T23:34:45.002Z,43.20
2023-05-22T23:37:12.565Z,41.63
2023-05-22T23:39:40.143Z,42.85
2023-05-22T23:42:11.391Z,41.65
2023-05-22T23:44:39.087Z,42.38
2023-05-22T23:47:07.281Z,41.95
2023-05-22T23:49:34.829Z,42.90
2023-05-22T23:52:02.390Z,43.00
2023-05-22T23:54:29.994Z,41.92
2023-05-22T23:56:57.465Z,42.35
2023-05-22T23:59:25.003Z,42.75
